Flight Track Log - Related Links

Times and Time Zones

All times are in EDT time to prevent confusion due to time zone crossing. See the DAL1117 flight status page for this flight to view local times or setup timezone preferences in your user account.

Time Position Orientation Groundspeed Altitude Reporting Facility
EDT Latitude Longitude Course Direction KTS MPH feet Rate Location/Type
Mon 09:55:19 PM 42.2008 -83.3578 292° West 160 184 1,500  Level FAA TRACON SMA TRACON (SMA)
Mon 09:55:39 PM 42.1911 -83.3744 232° Southwest 179 206 2,200 1,800 Climbing FAA TRACON SMA TRACON (SMA)
Mon 09:55:59 PM 42.1797 -83.3947 233° Southwest 198 228 2,700 1,350 Climbing FAA TRACON SMA TRACON (SMA)
Mon 09:56:19 PM 42.1694 -83.4131 233° Southwest 223 257 3,100 1,950 Climbing FAA TRACON SMA TRACON (SMA)
Mon 09:56:39 PM 42.1542 -83.4394 232° Southwest 244 281 4,000 3,150 Climbing FAA TRACON SMA TRACON (SMA)
Mon 09:56:59 PM 42.1394 -83.4644 232° Southwest 249 287 5,200 3,366 Climbing FAA TRACON SMA TRACON (SMA)
Mon 09:57:20 PM 42.1292 -83.4894 241° Southwest 257 296 6,300 3,073 Climbing FAA TRACON SMA TRACON (SMA)
Mon 09:57:40 PM 42.1278 -83.5247 267° West 266 306 7,300 2,769 Climbing FAA TRACON SMA TRACON (SMA)
Mon 09:57:59 PM 42.1392 -83.5539 298° West 290 334 8,100 3,231 Climbing FAA TRACON SMA TRACON (SMA)
Mon 09:58:00 PM 42.3336 -83.8730 292° West  Level FlightAware Approximate
Mon 09:58:19 PM 42.1519 -83.5814 302° West 278 320 9,400  Level FAA TRACON SMA TRACON (SMA)
Mon 09:58:39 PM 42.1672 -83.6164 301° West 282 325 10,400 2,100 Climbing FAA TRACON SMA TRACON (SMA)
Mon 09:58:59 PM 42.1800 -83.6469 299° West 302 348 10,800 1,350 Climbing FAA TRACON SMA TRACON (SMA)
Mon 09:59:00 PM 42.3722 -84.0017 292° West  Level FlightAware Approximate
Mon 09:59:19 PM 42.1944 -83.6789 301° West 330 380 11,300  Level FAA TRACON SMA TRACON (SMA)
Mon 09:59:39 PM 42.2131 -83.7200 301° West 329 379 12,400 2,634 Climbing FAA TRACON SMA TRACON (SMA)
Mon 10:00:00 PM 42.4108 -84.1304 292° West  Level FlightAware Approximate
Mon 10:00:00 PM 42.2275 -83.7522 301° West 327 376 13,100  Level FAA TRACON SMA TRACON (SMA)
Mon 10:00:20 PM 42.2431 -83.7850 303° West 334 384 13,800 2,308 Climbing FAA TRACON SMA TRACON (SMA)
Mon 10:00:39 PM 42.2586 -83.8194 301° West 346 398 14,600 2,485 Climbing FAA TRACON SMA TRACON (SMA)
Mon 10:01:59 PM 42.3283 -83.9747 301° West 351 404 17,900 2,198 Climbing FAA TRACON SMA TRACON (SMA)
Mon 10:02:20 PM 42.3447 -84.0100 302° West 361 415 18,300 1,279 Climbing FAA TRACON SMA TRACON (SMA)
Mon 10:03:00 PM 42.3836 -84.0961 301° West 391 450 19,200 1,627 Climbing FAA TRACON SMA TRACON (SMA)
Mon 10:03:19 PM 42.4014 -84.1350 302° West 394 453 19,900 2,462 Climbing FAA TRACON SMA TRACON (SMA)
Mon 10:03:39 PM 42.4211 -84.1803 301° West 393 452 20,800 2,400 Climbing FAA TRACON SMA TRACON (SMA)
Mon 10:03:59 PM 42.4278 -84.2289 281° West 390 449 21,500 1,756 Climbing FAA TRACON SMA TRACON (SMA)
Mon 10:04:20 PM 42.4297 -84.2739 273° West 393 452 22,000 1,500 Climbing FAA TRACON SMA TRACON (SMA)
Mon 10:04:39 PM 42.4306 -84.3197 271° West 396 456 22,500 1,538 Climbing FAA TRACON SMA TRACON (SMA)
Mon 10:04:59 PM 42.4328 -84.3775 273° West 399 459 23,000 1,500 Climbing FAA TRACON SMA TRACON (SMA)
Mon 10:05:19 PM 42.4342 -84.4244 272° West 404 465 23,500 1,350 Climbing FAA TRACON SMA TRACON (SMA)
Mon 10:05:39 PM 42.4353 -84.4719 272° West 408 470 23,900 750 Climbing FAA TRACON SMA TRACON (SMA)
Mon 10:05:59 PM 42.4356 -84.4839 272° West 409 471 24,000 1,500 Climbing FAA TRACON SMA TRACON (SMA)
Mon 10:07:39 PM 42.4425 -84.7772 272° West 419 482 26,900 1,926 Climbing Chicago Center
Mon 10:08:41 PM 42.4461 -84.9322 272° West 414 476 29,200 1,756 Climbing Chicago Center
Mon 10:09:42 PM 42.4494 -85.0806 272° West 398 458 30,500 1,122 Climbing Chicago Center
Mon 10:10:44 PM 42.4522 -85.2339 271° West 404 465 31,500 968 Climbing Chicago Center
Mon 10:11:46 PM 42.4550 -85.3875 271° West 409 471 32,500 1,171 Climbing Chicago Center
Mon 10:12:47 PM 42.4581 -85.5719 271° West 409 471 33,900 1,220 Climbing Chicago Center
Mon 10:13:49 PM 42.4608 -85.7192 272° West 396 456 35,000 878 Climbing Chicago Center
Mon 10:14:50 PM 42.4622 -85.8697 271° West 398 458 35,700 488 Climbing Chicago Center
Mon 10:15:52 PM 42.4647 -86.0203 271° West 398 458 36,000 146 Climbing Chicago Center
Mon 10:16:53 PM 42.4569 -86.1753 266° West 408 470 36,000  Level Chicago Center
Mon 10:17:55 PM 42.4375 -86.3300 260° West 417 480 36,000  Level Chicago Center
Mon 10:18:56 PM 42.4186 -86.4831 261° West 414 476 36,000 341 Level Chicago Center
Mon 10:19:58 PM 42.3992 -86.6344 260° West 410 472 36,700 774 Climbing Chicago Center
Mon 10:21:00 PM 42.3792 -86.7944 260° West 400 460 37,600 634 Climbing Chicago Center
Mon 10:22:01 PM 42.3608 -86.9386 260° West 392 451 38,000 195 Climbing Chicago Center
Mon 10:23:03 PM 42.3414 -87.0811 260° West 391 450 38,000  Level Chicago Center
Mon 10:24:04 PM 42.3167 -87.2611 260° West 409 471 38,000  Level Chicago Center
Mon 10:25:06 PM 42.2958 -87.4131 260° West 416 479 38,000  Level Chicago Center
Mon 10:26:07 PM 42.2761 -87.5619 260° West 409 471 38,000  Level Chicago Center
Mon 10:27:09 PM 42.2550 -87.7103 259° West 408 470 38,000  Level Chicago Center
Mon 10:28:10 PM 42.2350 -87.8578 260° West 405 466 38,000  Level Chicago Center
Mon 10:29:11 PM 42.2125 -88.0047 258° West 405 466 38,000  Level Chicago Center
Mon 10:30:13 PM 42.1867 -88.1478 256° West 400 460 38,000  Level Chicago Center
Mon 10:31:14 PM 42.1564 -88.3222 257° West 401 461 38,000  Level Chicago Center
Mon 10:32:15 PM 42.1292 -88.4683 256° West 404 465 38,000  Level Chicago Center
Mon 10:33:17 PM 42.1033 -88.6131 257° West 403 464 38,000  Level Chicago Center
Mon 10:34:18 PM 42.0769 -88.7589 256° West 405 466 38,000  Level Chicago Center
Mon 10:35:19 PM 42.0500 -88.9058 256° West 407 468 38,000  Level Chicago Center
Mon 10:36:21 PM 42.0236 -89.0514 256° West 405 466 38,000  Level Chicago Center
Mon 10:37:22 PM 41.9914 -89.2283 256° West 410 472 38,000  Level Chicago Center
Mon 10:38:24 PM 41.9647 -89.3733 256° West 406 467 38,000  Level Chicago Center
Mon 10:39:25 PM 41.9358 -89.5183 255° West 405 466 38,000  Level Chicago Center
Mon 10:40:26 PM 41.9086 -89.6628 256° West 403 464 38,000  Level Chicago Center
Mon 10:41:28 PM 41.8808 -89.8097 256° West 407 468 38,000  Level Chicago Center
Mon 10:42:29 PM 41.8556 -89.9483 256° West 407 468 38,000  Level Chicago Center
Mon 10:43:30 PM 41.8222 -90.1228 256° West 405 466 38,000  Level Chicago Center
Mon 10:44:31 PM 41.7961 -90.2533 255° West 406 467 38,000  Level Chicago Center
Mon 10:45:33 PM 41.7689 -90.4042 256° West 414 476 38,000  Level Chicago Center
Mon 10:46:34 PM 41.7522 -90.5517 261° West 405 466 38,000  Level Chicago Center
Mon 10:47:35 PM 41.7314 -90.7103 260° West 399 459 38,000  Level Chicago Center
Mon 10:48:36 PM 41.7131 -90.8544 260° West 397 457 38,000  Level Chicago Center
Mon 10:49:38 PM 41.6944 -90.9983 260° West 395 455 38,000  Level Chicago Center
Mon 10:50:39 PM 41.6758 -91.1433 260° West 396 456 38,000  Level Chicago Center
Mon 10:51:40 PM 41.6536 -91.3139 260° West 392 451 38,000  Level Chicago Center
Mon 10:52:41 PM 41.6350 -91.4572 260° West 393 452 38,000  Level Chicago Center
Mon 10:53:42 PM 41.6156 -91.5969 260° West 386 444 38,000  Level Chicago Center
Mon 10:54:43 PM 41.5969 -91.7383 260° West 388 447 38,000  Level Chicago Center
Mon 10:55:44 PM 41.5778 -91.8789 260° West 387 445 38,000  Level Chicago Center
Mon 10:56:45 PM 41.5578 -92.0197 259° West 388 447 38,000  Level Chicago Center
Mon 10:57:47 PM 41.5378 -92.1600 259° West 388 447 38,000  Level Chicago Center
Mon 10:58:48 PM 41.5181 -92.2997 259° West 386 444 38,000  Level Chicago Center
Mon 10:59:49 PM 41.4983 -92.4400 259° West 388 447 38,000  Level Chicago Center
Mon 11:00:50 PM 41.4775 -92.5836 259° West 389 448 38,000  Level Chicago Center
Mon 11:01:09 PM 41.4697 -92.6408 260° West 388 447 38,000  Level Minneapolis Center
Mon 11:02:10 PM 41.4494 -92.7783 259° West 385 443 38,000  Level Minneapolis Center
Mon 11:03:11 PM 41.4292 -92.9178 259° West 387 445 38,000  Level Minneapolis Center
Mon 11:04:12 PM 41.4081 -93.0572 259° West 387 445 38,000  Level Minneapolis Center
Mon 11:05:13 PM 41.3828 -93.2222 259° West 386 444 38,000  Level Minneapolis Center
Mon 11:06:14 PM 41.3617 -93.3597 258° West 385 443 38,000  Level Minneapolis Center
Mon 11:07:15 PM 41.3414 -93.4967 259° West 384 442 38,000  Level Minneapolis Center
Mon 11:08:16 PM 41.3225 -93.6278 259° West 375 432 38,000  Level Minneapolis Center
Mon 11:09:17 PM 41.3011 -93.7653 258° West 379 436 38,000  Level Minneapolis Center
Mon 11:10:18 PM 41.2794 -93.9014 258° West 380 437 38,000  Level Minneapolis Center
Mon 11:11:19 PM 41.2594 -94.0378 259° West 380 437 38,000  Level Minneapolis Center
Mon 11:12:20 PM 41.2369 -94.1739 258° West 380 437 38,000  Level Minneapolis Center
Mon 11:13:21 PM 41.2111 -94.3347 258° West 381 438 38,000  Level Minneapolis Center
Mon 11:14:22 PM 41.1889 -94.4703 258° West 378 435 38,000  Level Minneapolis Center
Mon 11:15:23 PM 41.1667 -94.6056 258° West 375 432 38,000  Level Minneapolis Center
Mon 11:16:36 PM 41.1414 -94.7656 258° West 373 429 38,000  Level Minneapolis Center
Mon 11:17:37 PM 41.1181 -94.9039 257° West 378 435 38,000  Level Minneapolis Center
Mon 11:18:38 PM 41.0953 -95.0394 257° West 379 436 38,000  Level Minneapolis Center
Mon 11:19:39 PM 41.0719 -95.1728 257° West 375 432 38,000  Level Minneapolis Center
Mon 11:20:40 PM 41.0494 -95.3064 257° West 373 429 38,000  Level Minneapolis Center
Mon 11:21:41 PM 41.0261 -95.4408 257° West 373 429 38,000  Level Minneapolis Center
Mon 11:22:42 PM 41.0036 -95.5744 257° West 372 428 38,000  Level Minneapolis Center
Mon 11:23:43 PM 40.9803 -95.7069 257° West 369 425 38,000  Level Minneapolis Center
Mon 11:24:44 PM 40.9575 -95.8422 257° West 372 428 38,000  Level Minneapolis Center
Mon 11:25:45 PM 40.9342 -95.9758 257° West 372 428 38,000  Level Minneapolis Center
Mon 11:26:46 PM 40.9100 -96.1089 257° West 371 427 38,000  Level Minneapolis Center
Mon 11:27:47 PM 40.8811 -96.2686 257° West 370 426 38,000  Level Minneapolis Center
Mon 11:28:48 PM 40.8583 -96.4008 257° West 368 423 38,000  Level Minneapolis Center
Mon 11:29:49 PM 40.8331 -96.5314 256° West 367 422 38,000  Level Minneapolis Center
Mon 11:30:50 PM 40.8100 -96.6639 257° West 369 425 38,000  Level Minneapolis Center
Mon 11:31:52 PM 40.7861 -96.7950 257° West 367 422 38,000  Level Minneapolis Center
Mon 11:32:53 PM 40.7608 -96.9267 256° West 369 425 38,000  Level Minneapolis Center
Mon 11:33:54 PM 40.7367 -97.0586 256° West 371 427 38,000  Level Minneapolis Center
Mon 11:34:55 PM 40.7119 -97.1906 256° West 371 427 38,000  Level Minneapolis Center
Mon 11:35:56 PM 40.6872 -97.3236 256° West 373 429 38,000  Level Minneapolis Center
Mon 11:36:57 PM 40.6625 -97.4539 256° West 375 432 38,000  Level Minneapolis Center
Mon 11:37:58 PM 40.6364 -97.5886 256° West 378 435 38,000  Level Minneapolis Center
Mon 11:38:59 PM 40.6114 -97.7247 256° West 381 438 38,000  Level Minneapolis Center
Mon 11:40:00 PM 40.5786 -97.8856 255° West 379 436 38,000  Level Minneapolis Center
Mon 11:41:01 PM 40.5528 -98.0200 256° West 379 436 38,000  Level Minneapolis Center
Mon 11:42:02 PM 40.5269 -98.1542 256° West 378 435 38,000  Level Minneapolis Center
Mon 11:43:03 PM 40.5000 -98.2883 255° West 378 435 38,000  Level Minneapolis Center
Mon 11:44:04 PM 40.4736 -98.4200 255° West 376 433 38,000  Level Minneapolis Center
Mon 11:45:05 PM 40.4472 -98.5517 255° West 373 429 38,000  Level Minneapolis Center
Mon 11:46:06 PM 40.4214 -98.6794 255° West 367 422 38,000  Level Minneapolis Center
Mon 11:47:07 PM 40.3961 -98.8069 255° West 361 415 38,000  Level Minneapolis Center
Mon 11:48:08 PM 40.3700 -98.9353 255° West 361 415 38,000  Level Minneapolis Center
Mon 11:48:29 PM 40.3592 -98.9869 255° West 363 418 38,000  Level Denver Center
Mon 11:49:30 PM 40.3331 -99.1167 255° West 365 420 38,000  Level Denver Center
Mon 11:50:32 PM 40.3050 -99.2447 254° West 366 421 38,000  Level Denver Center
Mon 11:51:33 PM 40.2786 -99.3767 255° West 371 427 38,000  Level Denver Center
Mon 11:52:35 PM 40.2500 -99.5089 254° West 375 432 38,000  Level Denver Center
Mon 11:53:36 PM 40.2225 -99.6386 255° West 372 428 38,000  Level Denver Center
Mon 11:54:37 PM 40.1956 -99.7683 255° West 370 426 38,000  Level Denver Center
Mon 11:55:39 PM 40.1644 -99.9117 254° West 368 423 38,000  Level Denver Center
Mon 11:56:40 PM 40.1375 -100.0372 254° West 373 429 38,000  Level Denver Center
Mon 11:57:41 PM 40.1058 -100.1844 254° West 375 432 38,000  Level Denver Center
Mon 11:58:43 PM 40.0786 -100.3086 254° West 372 428 38,000  Level Denver Center
Mon 11:59:44 PM 40.0514 -100.4319 254° West 368 423 38,000  Level Denver Center
Tue 12:00:45 AM 40.0194 -100.5772 254° West 371 427 38,000  Level Denver Center
Tue 12:01:47 AM 39.9925 -100.6997 254° West 367 422 38,000  Level Denver Center
Tue 12:02:48 AM 39.9653 -100.8181 253° West 357 411 38,000  Level Denver Center
Tue 12:03:49 AM 39.9333 -100.9578 253° West 359 413 38,000  Level Denver Center
Tue 12:04:51 AM 39.9072 -101.0781 254° West 360 414 38,000  Level Denver Center
Tue 12:05:52 AM 39.8803 -101.1964 254° West 357 411 38,000  Level Denver Center
Tue 12:06:53 AM 39.8483 -101.3397 254° West 368 423 38,000  Level Denver Center
Tue 12:07:54 AM 39.8197 -101.4628 253° West 371 427 38,000  Level Denver Center
Tue 12:08:55 AM 39.7875 -101.6014 253° West 361 415 38,000  Level Denver Center
Tue 12:09:57 AM 39.7592 -101.7208 253° West 360 414 38,000  Level Denver Center
Tue 12:10:58 AM 39.7331 -101.8367 254° West 351 404 38,000  Level Denver Center
Tue 12:11:59 AM 39.7008 -101.9703 253° West 346 398 38,000  Level Denver Center
Tue 12:13:00 AM 39.6744 -102.0869 254° West 350 403 38,000  Level Denver Center
Tue 12:14:01 AM 39.6458 -102.2019 252° West 349 402 38,000  Level Denver Center
Tue 12:15:03 AM 39.6142 -102.3375 253° West 352 405 38,000  Level Denver Center
Tue 12:16:04 AM 39.5878 -102.4478 253° West 352 405 38,000  Level Denver Center
Tue 12:17:05 AM 39.5536 -102.5872 252° West 348 400 38,000  Level Denver Center
Tue 12:18:06 AM 39.5247 -102.7089 253° West 350 403 38,000  Level Denver Center
Tue 12:19:07 AM 39.4947 -102.8306 252° West 349 402 38,000  Level Denver Center
Tue 12:20:08 AM 39.4647 -102.9517 252° West 351 404 38,000  Level Denver Center
Tue 12:21:09 AM 39.4353 -103.0722 252° West 348 400 38,000  Level Denver Center
Tue 12:22:10 AM 39.4053 -103.1953 253° West 357 411 38,000  Level Denver Center
Tue 12:23:11 AM 39.3750 -103.3178 252° West 354 407 38,000  Level Denver Center
Tue 12:24:13 AM 39.3439 -103.4406 252° West 356 410 38,000  Level Denver Center
Tue 12:25:14 AM 39.3136 -103.5653 253° West 360 414 38,000  Level Denver Center
Tue 12:26:15 AM 39.2808 -103.6900 251° West 363 418 38,000  Level Denver Center
Tue 12:27:16 AM 39.2494 -103.8142 252° West 360 414 38,000  Level Denver Center
Tue 12:28:17 AM 39.2181 -103.9375 252° West 359 413 38,000  Level Denver Center
Tue 12:29:18 AM 39.1869 -104.0633 252° West 362 417 38,000  Level Denver Center
Tue 12:30:19 AM 39.1528 -104.1928 251° West 374 430 38,000  Level Denver Center
Tue 12:31:20 AM 39.1197 -104.3192 251° West 369 425 38,000  Level Denver Center
Tue 12:32:21 AM 39.0875 -104.4433 252° West 362 417 38,000  Level Denver Center
Tue 12:33:22 AM 39.0544 -104.5694 251° West 365 420 38,000  Level Denver Center
Tue 12:34:35 AM 39.0219 -104.6933 251° West 361 415 38,000  Level Denver Center
Tue 12:35:36 AM 38.9831 -104.8389 251° West 363 418 38,000  Level Denver Center
Tue 12:36:37 AM 38.9514 -104.9594 251° West 353 406 38,000  Level Denver Center
Tue 12:37:38 AM 38.9192 -105.0800 251° West 355 409 38,000  Level Denver Center
Tue 12:38:39 AM 38.8861 -105.2047 251° West 364 419 38,000  Level Denver Center
Tue 12:39:40 AM 38.8511 -105.3331 251° West 376 433 38,000  Level Denver Center
Tue 12:40:40 AM 38.8178 -105.4547 251° West 361 415 38,000  Level Denver Center
Tue 12:41:41 AM 38.7858 -105.5717 251° West 347 399 38,000  Level Denver Center
Tue 12:42:42 AM 38.7522 -105.6936 251° West 358 412 38,000  Level Denver Center
Tue 12:43:43 AM 38.7189 -105.8139 250° West 354 407 38,000  Level Denver Center
Tue 12:44:44 AM 38.6861 -105.9347 251° West 357 411 38,000  Level Denver Center
Tue 12:45:45 AM 38.6519 -106.0583 251° West 364 419 38,000  Level Denver Center
Tue 12:46:45 AM 38.6147 -106.1933 251° West 367 422 38,000  Level Denver Center
Tue 12:47:46 AM 38.5800 -106.3161 250° West 367 422 38,000  Level Denver Center
Tue 12:48:59 AM 38.5381 -106.4625 250° West 366 421 38,000  Level Denver Center
Tue 12:50:00 AM 38.5042 -106.5844 250° West 364 419 38,000  Level Denver Center
Tue 12:51:01 AM 38.4753 -106.6822 249° West 366 421 38,000  Level Denver Center
Tue 12:52:02 AM 38.4339 -106.8294 250° West 367 422 38,000  Level Denver Center
Tue 12:53:02 AM 38.3983 -106.9531 250° West 368 423 38,000  Level Denver Center
Tue 12:54:03 AM 38.3619 -107.0781 250° West 374 430 38,000  Level Denver Center
Tue 12:55:04 AM 38.3267 -107.2003 250° West 362 417 38,000  Level Denver Center
Tue 12:56:05 AM 38.2931 -107.3161 250° West 363 418 38,000  Level Denver Center
Tue 12:57:05 AM 38.2533 -107.4508 249° West 363 418 38,000  Level Denver Center
Tue 12:58:06 AM 38.2203 -107.5661 250° West 361 415 38,000  Level Denver Center
Tue 12:59:07 AM 38.1861 -107.6822 250° West 363 418 38,000 49 Level Denver Center
Tue 01:00:08 AM 38.1458 -107.8192 250° West 368 423 38,100  Climbing Denver Center
Tue 01:01:08 AM 38.1106 -107.9367 249° West 371 427 38,000 -50 Descending Denver Center
Tue 01:02:09 AM 38.0758 -108.0528 249° West 369 425 38,000  Level Denver Center
Tue 01:03:10 AM 38.0364 -108.1831 249° West 364 419 38,000  Level Denver Center
Tue 01:04:11 AM 38.0017 -108.2983 249° West 365 420 38,000  Level Denver Center
Tue 01:05:11 AM 37.9667 -108.4153 249° West 368 423 38,000  Level Denver Center
Tue 01:06:12 AM 37.9258 -108.5506 249° West 367 422 38,000  Level Denver Center
Tue 01:07:13 AM 37.8894 -108.6661 248° West 370 426 38,000  Level Denver Center
Tue 01:08:13 AM 37.8547 -108.7839 250° West 373 429 38,000  Level Denver Center
Tue 01:09:14 AM 37.8119 -108.9178 248° West 368 423 38,000  Level Denver Center
Tue 01:10:15 AM 37.7833 -109.0364 253° West 369 425 38,000  Level Denver Center
Tue 01:11:15 AM 37.7531 -109.1558 252° West 373 429 38,000  Level Denver Center
Tue 01:12:16 AM 37.7172 -109.2964 252° West 377 434 38,000  Level Denver Center
Tue 01:13:17 AM 37.6883 -109.4186 253° West 378 435 38,000 -248 Level Denver Center
Tue 01:14:17 AM 37.6567 -109.5383 252° West 377 434 37,500 -744 Descending Denver Center
Tue 01:15:18 AM 37.6219 -109.6792 253° West 377 434 36,500 -738 Descending Denver Center
Tue 01:16:19 AM 37.5914 -109.8003 252° West 379 436 36,000 -248 Descending Denver Center
Tue 01:17:19 AM 37.5592 -109.9242 252° West 386 444 36,000  Level Denver Center
Tue 01:18:20 AM 37.5236 -110.0664 253° West 382 440 36,000  Level Denver Center
Tue 01:19:21 AM 37.4919 -110.1864 252° West 379 436 36,000  Level Denver Center
Tue 01:20:21 AM 37.4575 -110.3203 252° West 381 438 36,000  Level Denver Center
Tue 01:21:22 AM 37.4242 -110.4458 252° West 383 441 36,000  Level Denver Center
Tue 01:22:22 AM 37.3919 -110.5739 252° West 385 443 36,000  Level Denver Center
Tue 01:23:23 AM 37.3578 -110.7019 251° West 385 443 36,000  Level Denver Center
Tue 01:24:24 AM 37.3247 -110.8289 252° West 384 442 36,000 -99 Level Denver Center
Tue 01:25:24 AM 37.2903 -110.9567 251° West 385 443 35,800 -545 Descending Denver Center
Tue 01:26:25 AM 37.2558 -111.0831 251° West 382 440 34,900 -934 Descending Denver Center
Tue 01:27:26 AM 37.2217 -111.2111 252° West 386 444 33,900 -992 Descending Denver Center
Tue 01:28:26 AM 37.1864 -111.3406 251° West 393 452 32,900 -942 Descending Denver Center
Tue 01:29:27 AM 37.1508 -111.4725 251° West 398 458 32,000 -443 Descending Denver Center
Tue 01:30:28 AM 37.1169 -111.6058 252° West 400 460 32,000  Level Denver Center
Tue 01:31:28 AM 37.0806 -111.7414 251° West 407 468 32,000  Level Denver Center
Tue 01:32:29 AM 37.0508 -111.8803 255° West 412 474 32,000  Level Denver Center
Tue 01:33:30 AM 37.0222 -112.0158 255° West 406 467 32,000  Level Denver Center
Tue 01:34:12 AM 36.9994 -112.1258 255° West 405 466 32,000  Level Los Angeles Center
Tue 01:35:13 AM 36.9717 -112.2631 256° West 405 466 32,000  Level Los Angeles Center
Tue 01:36:14 AM 36.9422 -112.3989 255° West 405 466 32,000  Level Los Angeles Center
Tue 01:37:15 AM 36.9131 -112.5356 255° West 406 467 32,000  Level Los Angeles Center
Tue 01:38:16 AM 36.8842 -112.6714 255° West 404 465 32,000  Level Los Angeles Center
Tue 01:39:17 AM 36.8547 -112.8078 255° West 405 466 32,000  Level Los Angeles Center
Tue 01:40:18 AM 36.8258 -112.9453 255° West 408 470 32,000  Level Los Angeles Center
Tue 01:41:19 AM 36.7925 -113.0811 253° West 409 471 32,000  Level Los Angeles Center
Tue 01:42:20 AM 36.7547 -113.2167 251° West 413 475 32,000  Level Los Angeles Center
Tue 01:43:21 AM 36.7169 -113.3506 251° West 410 472 32,000  Level Los Angeles Center
Tue 01:44:22 AM 36.6792 -113.4869 251° West 415 478 32,000  Level Los Angeles Center
Tue 01:45:22 AM 36.6408 -113.6228 251° West 415 478 32,000 -1,736 Level Los Angeles Center
Tue 01:46:23 AM 36.5950 -113.7847 251° West 415 478 28,500 -3,443 Descending Los Angeles Center
Tue 01:47:24 AM 36.5569 -113.9175 250° West 410 472 25,000 -3,443 Descending Los Angeles Center
Tue 01:48:25 AM 36.5197 -114.0464 250° West 402 463 21,500 -3,590 Descending Los Angeles Center
Tue 01:49:26 AM 36.4856 -114.1833 253° West 400 460 17,700 -3,148 Descending Los Angeles Center
Tue 01:50:27 AM 36.4533 -114.2811 248° West 381 438 15,100 -3,114 Descending Los Angeles Center
Tue 01:50:45 AM 36.4383 -114.3392 252° West 374 430 13,600 -2,361 Descending Los Angeles Center
Tue 01:51:28 AM 36.4169 -114.3969 245° Southwest 364 419 12,700 -1,869 Descending Los Angeles Center
Tue 01:51:46 AM 36.3850 -114.4403 228° Southwest 366 421 11,700 -1,500 Descending Los Angeles Center
Tue 01:52:28 AM 36.3422 -114.4764 214° Southwest 357 411 11,200 -822 Descending Los Angeles Center
Tue 01:52:59 AM 36.3011 -114.5197 220° Southwest 323 372 10,700 -822 Descending Los Angeles Center
Tue 01:53:41 AM 36.2739 -114.5397 211° Southwest 315 362 10,200 -1,573 Descending Los Angeles Center
Tue 01:54:42 AM 36.1839 -114.6242 217° Southwest 292 336 8,000 -1,671 Descending Los Angeles Center
Tue 01:55:00 AM 36.1667 -114.6453 225° Southwest 292 336 8,000  Level Los Angeles Center
Tue 01:55:42 AM 36.1275 -114.6931 225° Southwest 287 330 8,000 -350 Level Los Angeles Center
Tue 01:56:43 AM 36.1019 -114.7736 249° West 250 288 7,400 -787 Descending Los Angeles Center
Tue 01:57:44 AM 36.0781 -114.8508 249° West 235 270 6,400 -1,073 Descending Los Angeles Center
Tue 01:58:46 AM 36.0719 -114.9219 264° West 231 266 5,200 -1,139 Descending Los Angeles Center
Tue 01:59:03 AM 36.0744 -114.9425 279° West 201 231 4,900 -1,000 Descending Los Angeles Center
Tue 01:59:46 AM 36.0739 -114.9850 269° West 204 235 4,200 -1,000 Descending Los Angeles Center
Tue 02:00:03 AM 36.0747 -115.0036 273° West 176 203 3,900 -787 Descending Los Angeles Center
Tue 02:00:47 AM 36.0742 -115.0414 269° West 183 211 3,400 -686 Descending Los Angeles Center
Tue 02:01:48 AM 36.0731 -115.0869 268° West 159 183 2,700 -786 Descending Los Angeles Center
Tue 02:02:11 AM 36.0739 -115.1078 273° West 132 152 2,300 -590 Descending Los Angeles Center
Tue 02:02:49 AM 36.0733 -115.1336 268° West 143 165 2,100 -316 Descending Los Angeles Center

Login

Don't have an account? Register now (free) for customized features, flight alerts, and more!